SCX1695 KMSP-CYUL
Flight info
| Callsign | SCX1695 |
|---|---|
| Flight time | 1h 57m |
| Altitude | 35000 |
| Route | WLSTN7 WLSTN DCT SSM DCT OXASA DCT BEMOG LFLER7 |
| Aircraft | B738/M-SDE2E3FGHIRWXY/LB1 |
Departure
| Time | 2026-05-06 23:09 |
|---|---|
| Airport | Minneapolis–Saint Paul International Airport / Wold–Chamberlain Field (KMSP) |
Arrival
| Time | 2026-05-07 01:06 |
|---|---|
| Airport | Montreal / Pierre Elliott Trudeau International Airport (CYUL) |
| Time | Latitude | Longitude | Altitude | Speed | Heading |
|---|---|---|---|---|---|
| 2026-05-06 22:42 | 44.87747 | -93.24265 | 835 ft | 0 kts | 181° |
| 2026-05-06 22:56 | 44.87770 | -93.24264 | 829 ft | 4 kts | 179° |
| 2026-05-06 22:56 | 44.87797 | -93.24266 | 830 ft | 4 kts | 168° |
| 2026-05-06 22:56 | 44.87818 | -93.24279 | 830 ft | 4 kts | 114° |
| 2026-05-06 22:56 | 44.87820 | -93.24289 | 831 ft | 1 kts | 80° |
| 2026-05-06 23:02 | 44.87821 | -93.24285 | 835 ft | 2 kts | 75° |
| 2026-05-06 23:02 | 44.87826 | -93.24243 | 835 ft | 7 kts | 80° |
| 2026-05-06 23:03 | 44.87831 | -93.24170 | 831 ft | 7 kts | 100° |
| 2026-05-06 23:03 | 44.87793 | -93.24129 | 832 ft | 7 kts | 169° |
| 2026-05-06 23:03 | 44.87745 | -93.24115 | 833 ft | 7 kts | 169° |
| 2026-05-06 23:03 | 44.87694 | -93.24102 | 833 ft | 10 kts | 169° |
| 2026-05-06 23:04 | 44.87595 | -93.24075 | 833 ft | 16 kts | 169° |
| 2026-05-06 23:04 | 44.87486 | -93.24045 | 831 ft | 16 kts | 171° |
| 2026-05-06 23:04 | 44.87381 | -93.24020 | 832 ft | 15 kts | 170° |
| 2026-05-06 23:04 | 44.87281 | -93.23996 | 832 ft | 14 kts | 170° |
| 2026-05-06 23:05 | 44.87185 | -93.23972 | 829 ft | 14 kts | 169° |
| 2026-05-06 23:05 | 44.87094 | -93.23948 | 834 ft | 13 kts | 169° |
| 2026-05-06 23:05 | 44.87017 | -93.23895 | 834 ft | 13 kts | 120° |
| 2026-05-06 23:05 | 44.87022 | -93.23774 | 834 ft | 12 kts | 78° |
| 2026-05-06 23:06 | 44.87032 | -93.23655 | 837 ft | 12 kts | 99° |
| 2026-05-06 23:06 | 44.86967 | -93.23598 | 834 ft | 12 kts | 170° |
| 2026-05-06 23:06 | 44.86887 | -93.23579 | 833 ft | 11 kts | 170° |
| 2026-05-06 23:06 | 44.86810 | -93.23558 | 830 ft | 11 kts | 166° |
| 2026-05-06 23:07 | 44.86735 | -93.23537 | 832 ft | 11 kts | 169° |
| 2026-05-06 23:07 | 44.86661 | -93.23534 | 833 ft | 11 kts | 205° |
| 2026-05-06 23:07 | 44.86655 | -93.23540 | 835 ft | 0 kts | 223° |
| 2026-05-06 23:07 | 44.86652 | -93.23545 | 835 ft | 4 kts | 227° |
| 2026-05-06 23:08 | 44.86637 | -93.23616 | 831 ft | 8 kts | 259° |
| 2026-05-06 23:08 | 44.86646 | -93.23690 | 832 ft | 8 kts | 317° |
| 2026-05-06 23:08 | 44.86764 | -93.23709 | 832 ft | 38 kts | 352° |
| 2026-05-06 23:08 | 44.87221 | -93.23824 | 837 ft | 94 kts | 349° |
| 2026-05-06 23:09 | 44.88035 | -93.24037 | 837 ft | 142 kts | 350° |
| 2026-05-06 23:09 | 44.89109 | -93.24338 | 1008 ft | 165 kts | 349° |
| 2026-05-06 23:09 | 44.90271 | -93.24543 | 1515 ft | 172 kts | 349° |
| 2026-05-06 23:09 | 44.91437 | -93.24726 | 2417 ft | 155 kts | 349° |
| 2026-05-06 23:10 | 44.92433 | -93.24904 | 3216 ft | 142 kts | 340° |
| 2026-05-06 23:10 | 44.93464 | -93.25282 | 3358 ft | 167 kts | 359° |
| 2026-05-06 23:10 | 44.94569 | -93.24519 | 3538 ft | 200 kts | 45° |
| 2026-05-06 23:10 | 44.95406 | -93.22802 | 3704 ft | 221 kts | 52° |
| 2026-05-06 23:11 | 44.96299 | -93.20926 | 3886 ft | 238 kts | 51° |
| 2026-05-06 23:11 | 44.97274 | -93.18929 | 3947 ft | 255 kts | 51° |
| 2026-05-06 23:11 | 44.98305 | -93.16854 | 4004 ft | 262 kts | 51° |
| 2026-05-06 23:11 | 44.99388 | -93.14711 | 4478 ft | 271 kts | 50° |
| 2026-05-06 23:12 | 45.00488 | -93.12553 | 5232 ft | 270 kts | 50° |
| 2026-05-06 23:12 | 45.01600 | -93.10392 | 5870 ft | 274 kts | 50° |
| 2026-05-06 23:12 | 45.02729 | -93.08215 | 6536 ft | 276 kts | 50° |
| 2026-05-06 23:12 | 45.03876 | -93.06010 | 7123 ft | 280 kts | 50° |
| 2026-05-06 23:13 | 45.05034 | -93.03788 | 7750 ft | 282 kts | 50° |
| 2026-05-06 23:13 | 45.06206 | -93.01545 | 8371 ft | 285 kts | 50° |
| 2026-05-06 23:13 | 45.07393 | -92.99276 | 8974 ft | 288 kts | 50° |
| 2026-05-06 23:13 | 45.08591 | -92.96984 | 9555 ft | 292 kts | 50° |
| 2026-05-06 23:14 | 45.09805 | -92.94663 | 10138 ft | 295 kts | 50° |
| 2026-05-06 23:14 | 45.11057 | -92.92271 | 10369 ft | 312 kts | 50° |
| 2026-05-06 23:14 | 45.12387 | -92.89730 | 10547 ft | 329 kts | 50° |
| 2026-05-06 23:14 | 45.13765 | -92.87089 | 10981 ft | 336 kts | 50° |
| 2026-05-06 23:15 | 45.15162 | -92.84404 | 11528 ft | 340 kts | 50° |
| 2026-05-06 23:15 | 45.16572 | -92.81693 | 12104 ft | 343 kts | 50° |
| 2026-05-06 23:15 | 45.17994 | -92.78956 | 12663 ft | 347 kts | 50° |
| 2026-05-06 23:15 | 45.19414 | -92.76221 | 13216 ft | 351 kts | 50° |
| 2026-05-06 23:16 | 45.20868 | -92.73422 | 13782 ft | 354 kts | 50° |
| 2026-05-06 23:16 | 45.22331 | -92.70602 | 14291 ft | 357 kts | 50° |
| 2026-05-06 23:16 | 45.23807 | -92.67740 | 14791 ft | 361 kts | 52° |
| 2026-05-06 23:16 | 45.25037 | -92.64605 | 15266 ft | 368 kts | 64° |
| 2026-05-06 23:17 | 45.25847 | -92.61129 | 15757 ft | 374 kts | 75° |
| 2026-05-06 23:17 | 45.26381 | -92.57503 | 16256 ft | 378 kts | 77° |
| 2026-05-06 23:17 | 45.26872 | -92.53817 | 16737 ft | 381 kts | 77° |
| 2026-05-06 23:17 | 45.27363 | -92.50110 | 17200 ft | 384 kts | 77° |
| 2026-05-06 23:18 | 45.27870 | -92.46367 | 17684 ft | 387 kts | 77° |
| 2026-05-06 23:18 | 45.28391 | -92.42601 | 18153 ft | 390 kts | 77° |
| 2026-05-06 23:18 | 45.28925 | -92.38804 | 18574 ft | 393 kts | 77° |
| 2026-05-06 23:18 | 45.29464 | -92.34982 | 18964 ft | 397 kts | 76° |
| 2026-05-06 23:19 | 45.30008 | -92.31117 | 19353 ft | 401 kts | 77° |
| 2026-05-06 23:19 | 45.30555 | -92.27221 | 19751 ft | 404 kts | 77° |
| 2026-05-06 23:19 | 45.31104 | -92.23290 | 20121 ft | 407 kts | 77° |
| 2026-05-06 23:19 | 45.31657 | -92.19327 | 20495 ft | 411 kts | 77° |
| 2026-05-06 23:20 | 45.32213 | -92.15323 | 20875 ft | 414 kts | 77° |
| 2026-05-06 23:20 | 45.32772 | -92.11294 | 21247 ft | 417 kts | 77° |
| 2026-05-06 23:20 | 45.33332 | -92.07237 | 21615 ft | 420 kts | 77° |
| 2026-05-06 23:20 | 45.33897 | -92.03144 | 21977 ft | 424 kts | 77° |
| 2026-05-06 23:21 | 45.34465 | -91.99013 | 22343 ft | 427 kts | 77° |
| 2026-05-06 23:21 | 45.35033 | -91.94863 | 22720 ft | 430 kts | 77° |
| 2026-05-06 23:21 | 45.35606 | -91.90673 | 23067 ft | 433 kts | 77° |
| 2026-05-06 23:21 | 45.36181 | -91.86455 | 23418 ft | 436 kts | 77° |
| 2026-05-06 23:22 | 45.36757 | -91.82213 | 23748 ft | 438 kts | 77° |
| 2026-05-06 23:22 | 45.37337 | -91.77939 | 24011 ft | 442 kts | 77° |
| 2026-05-06 23:22 | 45.37918 | -91.73634 | 24272 ft | 445 kts | 77° |
| 2026-05-06 23:22 | 45.38502 | -91.69299 | 24525 ft | 448 kts | 77° |
| 2026-05-06 23:23 | 45.39088 | -91.64935 | 24792 ft | 451 kts | 77° |
| 2026-05-06 23:23 | 45.39677 | -91.60536 | 25027 ft | 454 kts | 77° |
| 2026-05-06 23:23 | 45.40269 | -91.56108 | 25265 ft | 458 kts | 77° |
| 2026-05-06 23:23 | 45.40856 | -91.51694 | 25511 ft | 461 kts | 77° |
| 2026-05-06 23:24 | 45.41460 | -91.47142 | 25773 ft | 463 kts | 77° |
| 2026-05-06 23:24 | 45.42049 | -91.42686 | 25997 ft | 466 kts | 77° |
| 2026-05-06 23:24 | 45.42648 | -91.38142 | 26221 ft | 469 kts | 77° |
| 2026-05-06 23:24 | 45.43250 | -91.33554 | 26445 ft | 472 kts | 77° |
| 2026-05-06 23:25 | 45.43854 | -91.28948 | 26693 ft | 475 kts | 78° |
| 2026-05-06 23:25 | 45.44458 | -91.24314 | 26928 ft | 477 kts | 78° |
| 2026-05-06 23:25 | 45.45064 | -91.19657 | 27155 ft | 480 kts | 78° |
| 2026-05-06 23:25 | 45.45672 | -91.14968 | 27386 ft | 482 kts | 78° |
| 2026-05-06 23:26 | 45.46280 | -91.10262 | 27636 ft | 484 kts | 78° |
| 2026-05-06 23:26 | 45.46889 | -91.05538 | 27866 ft | 486 kts | 78° |
| 2026-05-06 23:26 | 45.47509 | -91.00794 | 28075 ft | 488 kts | 76° |
| 2026-05-06 23:26 | 45.48233 | -90.96053 | 28284 ft | 490 kts | 75° |
| 2026-05-06 23:27 | 45.49034 | -90.91327 | 28524 ft | 491 kts | 73° |
| 2026-05-06 23:27 | 45.49869 | -90.86596 | 28740 ft | 493 kts | 73° |
| 2026-05-06 23:27 | 45.50714 | -90.81836 | 28928 ft | 496 kts | 73° |
| 2026-05-06 23:27 | 45.51554 | -90.77062 | 29107 ft | 499 kts | 73° |
| 2026-05-06 23:28 | 45.52389 | -90.72248 | 29332 ft | 500 kts | 74° |
| 2026-05-06 23:28 | 45.53215 | -90.67420 | 29525 ft | 502 kts | 74° |
| 2026-05-06 23:28 | 45.54035 | -90.62573 | 29685 ft | 504 kts | 74° |
| 2026-05-06 23:28 | 45.54590 | -90.59276 | 29797 ft | 506 kts | 75° |
| 2026-05-06 23:29 | 45.55407 | -90.54392 | 30007 ft | 507 kts | 75° |
| 2026-05-06 23:29 | 45.56224 | -90.49490 | 30184 ft | 509 kts | 75° |
| 2026-05-06 23:29 | 45.57042 | -90.44576 | 30341 ft | 510 kts | 75° |
| 2026-05-06 23:29 | 45.57850 | -90.39705 | 30498 ft | 511 kts | 75° |
| 2026-05-06 23:30 | 45.58677 | -90.34707 | 30692 ft | 511 kts | 75° |
| 2026-05-06 23:30 | 45.59491 | -90.29774 | 30905 ft | 511 kts | 75° |
| 2026-05-06 23:30 | 45.60305 | -90.24832 | 31133 ft | 510 kts | 75° |
| 2026-05-06 23:30 | 45.61103 | -90.19974 | 31347 ft | 509 kts | 75° |
| 2026-05-06 23:31 | 45.61910 | -90.15048 | 31573 ft | 509 kts | 75° |
| 2026-05-06 23:31 | 45.62722 | -90.10074 | 31806 ft | 508 kts | 75° |
| 2026-05-06 23:31 | 45.63512 | -90.05225 | 31993 ft | 507 kts | 76° |
| 2026-05-06 23:31 | 45.64320 | -90.00250 | 32165 ft | 507 kts | 76° |
| 2026-05-06 23:32 | 45.65068 | -89.95624 | 32759 ft | 498 kts | 76° |
| 2026-05-06 23:32 | 45.65834 | -89.90869 | 33460 ft | 485 kts | 76° |
| 2026-05-06 23:32 | 45.66584 | -89.86202 | 33885 ft | 479 kts | 76° |
| 2026-05-06 23:32 | 45.67330 | -89.81557 | 33994 ft | 480 kts | 76° |
| 2026-05-06 23:33 | 45.68078 | -89.76891 | 34049 ft | 482 kts | 76° |
| 2026-05-06 23:33 | 45.69577 | -89.67504 | 34099 ft | 486 kts | 76° |
| 2026-05-06 23:34 | 45.71077 | -89.58043 | 34233 ft | 488 kts | 76° |
| 2026-05-06 23:34 | 45.71825 | -89.53302 | 34353 ft | 487 kts | 76° |
| 2026-05-06 23:34 | 45.72569 | -89.48576 | 34476 ft | 487 kts | 76° |
| 2026-05-06 23:35 | 45.74050 | -89.39123 | 34654 ft | 487 kts | 76° |
| 2026-05-06 23:35 | 45.75527 | -89.29639 | 34853 ft | 487 kts | 76° |
| 2026-05-06 23:36 | 45.76989 | -89.20196 | 34984 ft | 486 kts | 76° |
| 2026-05-06 23:36 | 45.78449 | -89.10714 | 34994 ft | 488 kts | 77° |
| 2026-05-06 23:37 | 45.79905 | -89.01201 | 35002 ft | 490 kts | 77° |
| 2026-05-06 23:37 | 45.81361 | -88.91637 | 35003 ft | 492 kts | 77° |
| 2026-05-06 23:38 | 45.82812 | -88.82041 | 35002 ft | 493 kts | 77° |
| 2026-05-06 23:38 | 45.84256 | -88.72434 | 34999 ft | 493 kts | 77° |
| 2026-05-06 23:39 | 45.85683 | -88.62880 | 34998 ft | 493 kts | 77° |
| 2026-05-06 23:39 | 45.87108 | -88.53280 | 34986 ft | 491 kts | 77° |
| 2026-05-06 23:40 | 45.88521 | -88.43709 | 34976 ft | 489 kts | 77° |
| 2026-05-06 23:40 | 45.89920 | -88.34165 | 34970 ft | 488 kts | 77° |
| 2026-05-06 23:41 | 45.91308 | -88.24646 | 34966 ft | 486 kts | 77° |
| 2026-05-06 23:41 | 45.92681 | -88.15165 | 34961 ft | 485 kts | 77° |
| 2026-05-06 23:42 | 45.94044 | -88.05701 | 34968 ft | 483 kts | 78° |
| 2026-05-06 23:42 | 45.95397 | -87.96245 | 34973 ft | 483 kts | 78° |
| 2026-05-06 23:43 | 45.96741 | -87.86791 | 34978 ft | 483 kts | 78° |
| 2026-05-06 23:43 | 45.98078 | -87.77325 | 34989 ft | 483 kts | 78° |
| 2026-05-06 23:44 | 45.99409 | -87.67845 | 34997 ft | 484 kts | 78° |
| 2026-05-06 23:44 | 46.00737 | -87.58325 | 34998 ft | 486 kts | 78° |
| 2026-05-06 23:45 | 46.02060 | -87.48780 | 34996 ft | 487 kts | 78° |
| 2026-05-06 23:45 | 46.03379 | -87.39204 | 34999 ft | 488 kts | 78° |
| 2026-05-06 23:46 | 46.04692 | -87.29602 | 35000 ft | 490 kts | 78° |
| 2026-05-06 23:46 | 46.06001 | -87.19973 | 35000 ft | 491 kts | 78° |
| 2026-05-06 23:47 | 46.07304 | -87.10318 | 35003 ft | 492 kts | 78° |
| 2026-05-06 23:47 | 46.08601 | -87.00645 | 35005 ft | 492 kts | 79° |
| 2026-05-06 23:48 | 46.09889 | -86.90971 | 35003 ft | 492 kts | 79° |
| 2026-05-06 23:48 | 46.11171 | -86.81281 | 35006 ft | 491 kts | 79° |
| 2026-05-06 23:49 | 46.12441 | -86.71612 | 34999 ft | 491 kts | 79° |
| 2026-05-06 23:49 | 46.13701 | -86.61955 | 34997 ft | 490 kts | 79° |
| 2026-05-06 23:50 | 46.14950 | -86.52308 | 34989 ft | 489 kts | 79° |
| 2026-05-06 23:50 | 46.16797 | -86.37933 | 34989 ft | 487 kts | 79° |
| 2026-05-06 23:51 | 46.18020 | -86.28329 | 34987 ft | 486 kts | 79° |
| 2026-05-06 23:51 | 46.19235 | -86.18717 | 34993 ft | 486 kts | 79° |
| 2026-05-06 23:52 | 46.20423 | -86.09252 | 34999 ft | 488 kts | 79° |
| 2026-05-06 23:52 | 46.21628 | -85.99586 | 35008 ft | 490 kts | 80° |
| 2026-05-06 23:53 | 46.22828 | -85.89888 | 35009 ft | 492 kts | 80° |
| 2026-05-06 23:53 | 46.24025 | -85.80145 | 34989 ft | 493 kts | 80° |
| 2026-05-06 23:54 | 46.25217 | -85.70372 | 34977 ft | 494 kts | 80° |
| 2026-05-06 23:54 | 46.26399 | -85.60605 | 34965 ft | 493 kts | 80° |
| 2026-05-06 23:55 | 46.27572 | -85.50843 | 34958 ft | 492 kts | 80° |
| 2026-05-06 23:55 | 46.28733 | -85.41109 | 34957 ft | 490 kts | 80° |
| 2026-05-06 23:56 | 46.29873 | -85.31474 | 34962 ft | 488 kts | 81° |
| 2026-05-06 23:56 | 46.31009 | -85.21802 | 34969 ft | 487 kts | 81° |
| 2026-05-06 23:57 | 46.32132 | -85.12163 | 34986 ft | 485 kts | 81° |
| 2026-05-06 23:57 | 46.33245 | -85.02545 | 34998 ft | 484 kts | 81° |
| 2026-05-06 23:58 | 46.34347 | -84.92946 | 35001 ft | 484 kts | 81° |
| 2026-05-06 23:58 | 46.35441 | -84.83339 | 34992 ft | 484 kts | 81° |
| 2026-05-06 23:59 | 46.36529 | -84.73713 | 34988 ft | 485 kts | 81° |
| 2026-05-06 23:59 | 46.37611 | -84.64066 | 34978 ft | 486 kts | 81° |
| 2026-05-07 00:00 | 46.38688 | -84.54384 | 34978 ft | 488 kts | 81° |
| 2026-05-07 00:00 | 46.39580 | -84.46308 | 34976 ft | 489 kts | 81° |
| 2026-05-07 00:01 | 46.40831 | -84.34904 | 34979 ft | 491 kts | 81° |
| 2026-05-07 00:01 | 46.41400 | -84.25125 | 34985 ft | 491 kts | 90° |
| 2026-05-07 00:02 | 46.41460 | -84.15212 | 34968 ft | 492 kts | 91° |
| 2026-05-07 00:02 | 46.41491 | -84.05274 | 34978 ft | 493 kts | 91° |
| 2026-05-07 00:03 | 46.41553 | -83.95333 | 34972 ft | 494 kts | 91° |
| 2026-05-07 00:03 | 46.41630 | -83.85387 | 34966 ft | 494 kts | 91° |
| 2026-05-07 00:04 | 46.41704 | -83.75438 | 34967 ft | 493 kts | 91° |
| 2026-05-07 00:04 | 46.41768 | -83.65511 | 34964 ft | 492 kts | 91° |
| 2026-05-07 00:05 | 46.41821 | -83.55609 | 34964 ft | 491 kts | 91° |
| 2026-05-07 00:05 | 46.41864 | -83.45710 | 34970 ft | 490 kts | 91° |
| 2026-05-07 00:06 | 46.41900 | -83.35838 | 34963 ft | 490 kts | 91° |
| 2026-05-07 00:06 | 46.41927 | -83.25967 | 34966 ft | 489 kts | 91° |
| 2026-05-07 00:07 | 46.41945 | -83.16110 | 34959 ft | 489 kts | 91° |
| 2026-05-07 00:07 | 46.41955 | -83.06258 | 34959 ft | 489 kts | 92° |
| 2026-05-07 00:08 | 46.41957 | -82.96385 | 34965 ft | 490 kts | 92° |
| 2026-05-07 00:08 | 46.41950 | -82.86503 | 34955 ft | 491 kts | 92° |
| 2026-05-07 00:09 | 46.41935 | -82.76672 | 34964 ft | 492 kts | 92° |
| 2026-05-07 00:09 | 46.41910 | -82.66753 | 34965 ft | 493 kts | 92° |
| 2026-05-07 00:10 | 46.41878 | -82.56806 | 34958 ft | 494 kts | 92° |
| 2026-05-07 00:10 | 46.41836 | -82.46824 | 34959 ft | 496 kts | 92° |
| 2026-05-07 00:11 | 46.41786 | -82.36829 | 34955 ft | 497 kts | 92° |
| 2026-05-07 00:11 | 46.41727 | -82.26802 | 34953 ft | 498 kts | 92° |
| 2026-05-07 00:12 | 46.41659 | -82.16772 | 34950 ft | 499 kts | 92° |
| 2026-05-07 00:12 | 46.41583 | -82.06728 | 34955 ft | 499 kts | 93° |
| 2026-05-07 00:13 | 46.41497 | -81.96663 | 34947 ft | 499 kts | 93° |
| 2026-05-07 00:13 | 46.41403 | -81.86621 | 34948 ft | 498 kts | 93° |
| 2026-05-07 00:14 | 46.41300 | -81.76573 | 34943 ft | 498 kts | 93° |
| 2026-05-07 00:14 | 46.41188 | -81.66564 | 34944 ft | 497 kts | 93° |
| 2026-05-07 00:15 | 46.41089 | -81.58242 | 34942 ft | 497 kts | 93° |
| 2026-05-07 00:15 | 46.40960 | -81.48193 | 34952 ft | 500 kts | 93° |
| 2026-05-07 00:16 | 46.40821 | -81.38074 | 34954 ft | 504 kts | 93° |
| 2026-05-07 00:16 | 46.40674 | -81.27902 | 34945 ft | 507 kts | 94° |
| 2026-05-07 00:17 | 46.40516 | -81.17655 | 34941 ft | 510 kts | 94° |
| 2026-05-07 00:17 | 46.40348 | -81.07365 | 34930 ft | 512 kts | 94° |
| 2026-05-07 00:18 | 46.40170 | -80.97015 | 34924 ft | 515 kts | 94° |
| 2026-05-07 00:18 | 46.39984 | -80.86688 | 34917 ft | 518 kts | 94° |
| 2026-05-07 00:19 | 46.39785 | -80.76251 | 34916 ft | 520 kts | 94° |
| 2026-05-07 00:19 | 46.39576 | -80.65754 | 34915 ft | 522 kts | 94° |
| 2026-05-07 00:20 | 46.39356 | -80.55208 | 34922 ft | 525 kts | 94° |
| 2026-05-07 00:20 | 46.39126 | -80.44627 | 34921 ft | 527 kts | 94° |
| 2026-05-07 00:21 | 46.38886 | -80.34009 | 34920 ft | 528 kts | 94° |
| 2026-05-07 00:21 | 46.38636 | -80.23420 | 34911 ft | 529 kts | 95° |
| 2026-05-07 00:22 | 46.38377 | -80.12866 | 34910 ft | 530 kts | 95° |
| 2026-05-07 00:22 | 46.38105 | -80.02178 | 34902 ft | 531 kts | 95° |
| 2026-05-07 00:23 | 46.37825 | -79.91563 | 34901 ft | 532 kts | 95° |
| 2026-05-07 00:23 | 46.37532 | -79.80861 | 34882 ft | 532 kts | 95° |
| 2026-05-07 00:24 | 46.37230 | -79.70146 | 34876 ft | 533 kts | 95° |
| 2026-05-07 00:24 | 46.36917 | -79.59419 | 34856 ft | 533 kts | 95° |
| 2026-05-07 00:25 | 46.36595 | -79.48695 | 34860 ft | 534 kts | 95° |
| 2026-05-07 00:25 | 46.36251 | -79.37952 | 34856 ft | 534 kts | 96° |
| 2026-05-07 00:26 | 46.35829 | -79.27209 | 34860 ft | 535 kts | 96° |
| 2026-05-07 00:26 | 46.35379 | -79.16466 | 34860 ft | 535 kts | 97° |
| 2026-05-07 00:27 | 46.34928 | -79.05712 | 34878 ft | 536 kts | 97° |
| 2026-05-07 00:27 | 46.34474 | -78.94942 | 34874 ft | 536 kts | 97° |
| 2026-05-07 00:28 | 46.34012 | -78.84168 | 34872 ft | 536 kts | 97° |
| 2026-05-07 00:28 | 46.33538 | -78.73399 | 34876 ft | 537 kts | 97° |
| 2026-05-07 00:29 | 46.33054 | -78.62611 | 34877 ft | 537 kts | 97° |
| 2026-05-07 00:30 | 46.32054 | -78.41043 | 34866 ft | 537 kts | 97° |
| 2026-05-07 00:30 | 46.31538 | -78.30254 | 34867 ft | 537 kts | 98° |
| 2026-05-07 00:31 | 46.31012 | -78.19469 | 34868 ft | 538 kts | 98° |
| 2026-05-07 00:31 | 46.30475 | -78.08667 | 34872 ft | 538 kts | 98° |
| 2026-05-07 00:32 | 46.29929 | -77.97873 | 34871 ft | 538 kts | 98° |
| 2026-05-07 00:32 | 46.29371 | -77.87068 | 34863 ft | 539 kts | 98° |
| 2026-05-07 00:33 | 46.28808 | -77.76337 | 34870 ft | 539 kts | 98° |
| 2026-05-07 00:33 | 46.28230 | -77.65535 | 34867 ft | 539 kts | 98° |
| 2026-05-07 00:34 | 46.27642 | -77.54730 | 34865 ft | 539 kts | 98° |
| 2026-05-07 00:34 | 46.27044 | -77.43935 | 34862 ft | 539 kts | 98° |
| 2026-05-07 00:35 | 46.26437 | -77.33162 | 34861 ft | 538 kts | 99° |
| 2026-05-07 00:35 | 46.25820 | -77.22402 | 34852 ft | 536 kts | 99° |
| 2026-05-07 00:36 | 46.25196 | -77.11677 | 34856 ft | 535 kts | 99° |
| 2026-05-07 00:36 | 46.24569 | -77.01045 | 34822 ft | 520 kts | 99° |
| 2026-05-07 00:37 | 46.24267 | -76.95920 | 34825 ft | 505 kts | 99° |
| 2026-05-07 00:37 | 46.23971 | -76.90932 | 34828 ft | 491 kts | 99° |
| 2026-05-07 00:37 | 46.23680 | -76.86095 | 34828 ft | 479 kts | 100° |
| 2026-05-07 00:37 | 46.23384 | -76.81296 | 34851 ft | 480 kts | 100° |
| 2026-05-07 00:38 | 46.22777 | -76.71657 | 34859 ft | 484 kts | 100° |
| 2026-05-07 00:38 | 46.22162 | -76.61939 | 34857 ft | 488 kts | 100° |
| 2026-05-07 00:39 | 46.21538 | -76.52140 | 34845 ft | 492 kts | 100° |
| 2026-05-07 00:39 | 46.20891 | -76.42156 | 34193 ft | 515 kts | 100° |
| 2026-05-07 00:40 | 46.20549 | -76.36995 | 33493 ft | 529 kts | 101° |
| 2026-05-07 00:40 | 46.20203 | -76.31718 | 32862 ft | 525 kts | 101° |
| 2026-05-07 00:40 | 46.19866 | -76.26510 | 32507 ft | 518 kts | 101° |
| 2026-05-07 00:40 | 46.19529 | -76.21339 | 31835 ft | 518 kts | 101° |
| 2026-05-07 00:41 | 46.19188 | -76.16190 | 31374 ft | 513 kts | 101° |
| 2026-05-07 00:41 | 46.18845 | -76.11080 | 30861 ft | 510 kts | 102° |
| 2026-05-07 00:41 | 46.18500 | -76.06002 | 30374 ft | 507 kts | 102° |
| 2026-05-07 00:41 | 46.18156 | -76.00960 | 29891 ft | 503 kts | 102° |
| 2026-05-07 00:42 | 46.17810 | -75.95949 | 29295 ft | 500 kts | 102° |
| 2026-05-07 00:42 | 46.17467 | -75.90988 | 28789 ft | 495 kts | 102° |
| 2026-05-07 00:42 | 46.17123 | -75.86056 | 28262 ft | 492 kts | 102° |
| 2026-05-07 00:42 | 46.16781 | -75.81172 | 27772 ft | 487 kts | 102° |
| 2026-05-07 00:43 | 46.16439 | -75.76327 | 27260 ft | 484 kts | 102° |
| 2026-05-07 00:43 | 46.16096 | -75.71508 | 26751 ft | 481 kts | 102° |
| 2026-05-07 00:43 | 46.15755 | -75.66729 | 26256 ft | 478 kts | 102° |
| 2026-05-07 00:43 | 46.15414 | -75.61977 | 25771 ft | 475 kts | 102° |
| 2026-05-07 00:44 | 46.15073 | -75.57251 | 25287 ft | 473 kts | 102° |
| 2026-05-07 00:44 | 46.14687 | -75.52546 | 24784 ft | 470 kts | 104° |
| 2026-05-07 00:44 | 46.14255 | -75.47895 | 24426 ft | 465 kts | 104° |
| 2026-05-07 00:44 | 46.13815 | -75.43340 | 24169 ft | 455 kts | 104° |
| 2026-05-07 00:45 | 46.13366 | -75.38761 | 23429 ft | 463 kts | 104° |
| 2026-05-07 00:45 | 46.12919 | -75.34148 | 22757 ft | 465 kts | 103° |
| 2026-05-07 00:45 | 46.12479 | -75.29546 | 22251 ft | 462 kts | 103° |
| 2026-05-07 00:45 | 46.12045 | -75.24960 | 21744 ft | 460 kts | 103° |
| 2026-05-07 00:46 | 46.11614 | -75.20414 | 21255 ft | 457 kts | 103° |
| 2026-05-07 00:46 | 46.11182 | -75.15882 | 20775 ft | 454 kts | 103° |
| 2026-05-07 00:46 | 46.10751 | -75.11393 | 20305 ft | 451 kts | 103° |
| 2026-05-07 00:46 | 46.10320 | -75.06928 | 19820 ft | 449 kts | 103° |
| 2026-05-07 00:47 | 46.09887 | -75.02487 | 19350 ft | 447 kts | 103° |
| 2026-05-07 00:47 | 46.09454 | -74.98063 | 18880 ft | 444 kts | 103° |
| 2026-05-07 00:47 | 46.09021 | -74.93666 | 18423 ft | 442 kts | 103° |
| 2026-05-07 00:47 | 46.08589 | -74.89289 | 17920 ft | 441 kts | 103° |
| 2026-05-07 00:48 | 46.08156 | -74.84926 | 17406 ft | 438 kts | 103° |
| 2026-05-07 00:48 | 46.07725 | -74.80590 | 16919 ft | 435 kts | 103° |
| 2026-05-07 00:48 | 46.07296 | -74.76291 | 16461 ft | 432 kts | 103° |
| 2026-05-07 00:48 | 46.06869 | -74.72027 | 16018 ft | 428 kts | 102° |
| 2026-05-07 00:49 | 46.06448 | -74.67828 | 15668 ft | 422 kts | 102° |
| 2026-05-07 00:49 | 46.06028 | -74.63657 | 15231 ft | 419 kts | 102° |
| 2026-05-07 00:49 | 46.05609 | -74.59521 | 14803 ft | 416 kts | 102° |
| 2026-05-07 00:49 | 46.05197 | -74.55466 | 14378 ft | 414 kts | 102° |
| 2026-05-07 00:50 | 46.04544 | -74.51482 | 13909 ft | 404 kts | 118° |
| 2026-05-07 00:50 | 46.03134 | -74.48074 | 13395 ft | 392 kts | 136° |
| 2026-05-07 00:50 | 46.01171 | -74.45426 | 12909 ft | 382 kts | 146° |
| 2026-05-07 00:50 | 45.99099 | -74.43063 | 12437 ft | 379 kts | 147° |
| 2026-05-07 00:51 | 45.97056 | -74.40752 | 12316 ft | 368 kts | 147° |
| 2026-05-07 00:51 | 45.95091 | -74.38491 | 12219 ft | 356 kts | 146° |
| 2026-05-07 00:51 | 45.93194 | -74.36285 | 12129 ft | 345 kts | 146° |
| 2026-05-07 00:51 | 45.91354 | -74.34139 | 11882 ft | 339 kts | 146° |
| 2026-05-07 00:52 | 45.89520 | -74.32004 | 11512 ft | 338 kts | 146° |
| 2026-05-07 00:52 | 45.87701 | -74.29889 | 11209 ft | 334 kts | 146° |
| 2026-05-07 00:52 | 45.85924 | -74.27819 | 11118 ft | 324 kts | 146° |
| 2026-05-07 00:52 | 45.84201 | -74.25812 | 11043 ft | 313 kts | 146° |
| 2026-05-07 00:53 | 45.82510 | -74.23849 | 10671 ft | 314 kts | 146° |
| 2026-05-07 00:53 | 45.80818 | -74.21888 | 10386 ft | 312 kts | 145° |
| 2026-05-07 00:53 | 45.79133 | -74.19935 | 10079 ft | 311 kts | 145° |
| 2026-05-07 00:53 | 45.77467 | -74.18004 | 9928 ft | 303 kts | 145° |
| 2026-05-07 00:54 | 45.75868 | -74.16138 | 9910 ft | 291 kts | 142° |
| 2026-05-07 00:54 | 45.74580 | -74.13894 | 9608 ft | 296 kts | 122° |
| 2026-05-07 00:54 | 45.73637 | -74.11321 | 9483 ft | 289 kts | 121° |
| 2026-05-07 00:54 | 45.72709 | -74.08790 | 9231 ft | 286 kts | 121° |
| 2026-05-07 00:55 | 45.71773 | -74.06294 | 8919 ft | 285 kts | 121° |
| 2026-05-07 00:55 | 45.70838 | -74.03839 | 8628 ft | 284 kts | 121° |
| 2026-05-07 00:55 | 45.69892 | -74.01371 | 8346 ft | 282 kts | 121° |
| 2026-05-07 00:55 | 45.68950 | -73.98919 | 8066 ft | 281 kts | 121° |
| 2026-05-07 00:56 | 45.68013 | -73.96481 | 7788 ft | 279 kts | 121° |
| 2026-05-07 00:56 | 45.67079 | -73.94055 | 7520 ft | 278 kts | 121° |
| 2026-05-07 00:56 | 45.66138 | -73.91612 | 7229 ft | 276 kts | 120° |
| 2026-05-07 00:56 | 45.65212 | -73.89212 | 6977 ft | 275 kts | 120° |
| 2026-05-07 00:57 | 45.64312 | -73.86875 | 6665 ft | 271 kts | 120° |
| 2026-05-07 00:57 | 45.63403 | -73.84521 | 6257 ft | 270 kts | 119° |
| 2026-05-07 00:57 | 45.62504 | -73.82195 | 6001 ft | 261 kts | 119° |
| 2026-05-07 00:57 | 45.61654 | -73.79996 | 5976 ft | 244 kts | 119° |
| 2026-05-07 00:58 | 45.60855 | -73.77934 | 5792 ft | 234 kts | 118° |
| 2026-05-07 00:58 | 45.60381 | -73.75754 | 5425 ft | 230 kts | 86° |
| 2026-05-07 00:58 | 45.60797 | -73.73594 | 4833 ft | 232 kts | 54° |
| 2026-05-07 00:58 | 45.61887 | -73.71818 | 4332 ft | 239 kts | 40° |
| 2026-05-07 00:59 | 45.64378 | -73.68592 | 4084 ft | 240 kts | 39° |
| 2026-05-07 00:59 | 45.65597 | -73.67021 | 3987 ft | 231 kts | 39° |
| 2026-05-07 00:59 | 45.66748 | -73.65519 | 3973 ft | 219 kts | 39° |
| 2026-05-07 01:00 | 45.67857 | -73.64064 | 3994 ft | 216 kts | 39° |
| 2026-05-07 01:00 | 45.68987 | -73.62584 | 3915 ft | 229 kts | 39° |
| 2026-05-07 01:00 | 45.69994 | -73.60752 | 3644 ft | 238 kts | 66° |
| 2026-05-07 01:00 | 45.70210 | -73.58439 | 3511 ft | 236 kts | 100° |
| 2026-05-07 01:01 | 45.69550 | -73.56362 | 3450 ft | 229 kts | 131° |
| 2026-05-07 01:01 | 45.68323 | -73.54987 | 3295 ft | 222 kts | 164° |
| 2026-05-07 01:01 | 45.66827 | -73.54788 | 3219 ft | 216 kts | 192° |
| 2026-05-07 01:01 | 45.65369 | -73.55168 | 3106 ft | 212 kts | 195° |
| 2026-05-07 01:02 | 45.63935 | -73.55590 | 3013 ft | 209 kts | 196° |
| 2026-05-07 01:02 | 45.62536 | -73.56008 | 2985 ft | 201 kts | 197° |
| 2026-05-07 01:02 | 45.61357 | -73.56772 | 2997 ft | 178 kts | 225° |
| 2026-05-07 01:02 | 45.60385 | -73.57886 | 2994 ft | 180 kts | 222° |
| 2026-05-07 01:03 | 45.59748 | -73.58625 | 3022 ft | 176 kts | 225° |
| 2026-05-07 01:03 | 45.58833 | -73.59783 | 2846 ft | 176 kts | 226° |
| 2026-05-07 01:03 | 45.57942 | -73.60951 | 2631 ft | 172 kts | 227° |
| 2026-05-07 01:03 | 45.57076 | -73.62091 | 2392 ft | 164 kts | 227° |
| 2026-05-07 01:04 | 45.56000 | -73.63508 | 2118 ft | 158 kts | 227° |
| 2026-05-07 01:04 | 45.55460 | -73.64218 | 1993 ft | 156 kts | 226° |
| 2026-05-07 01:04 | 45.54669 | -73.65259 | 1780 ft | 154 kts | 226° |
| 2026-05-07 01:04 | 45.53889 | -73.66283 | 1584 ft | 153 kts | 225° |
| 2026-05-07 01:05 | 45.53111 | -73.67305 | 1364 ft | 150 kts | 225° |
| 2026-05-07 01:05 | 45.52359 | -73.68292 | 1145 ft | 145 kts | 225° |
| 2026-05-07 01:05 | 45.51588 | -73.69262 | 838 ft | 150 kts | 224° |
| 2026-05-07 01:05 | 45.50830 | -73.70281 | 578 ft | 148 kts | 223° |
| 2026-05-07 01:06 | 45.50084 | -73.71278 | 314 ft | 146 kts | 224° |
| 2026-05-07 01:06 | 45.49393 | -73.72208 | 246 ft | 126 kts | 225° |
| 2026-05-07 01:06 | 45.48988 | -73.72827 | 114 ft | 0 kts | 336° |